PILOTS ONLINE: 261    ATC ONLINE: 51

CYSK

Sanikiluaq Airport

Location

IATA YSK
City Sanikiluaq
Country  Canada
Latitude 56° 32' 16" N
Longitude 79° 14' 48" W
Elevation 104 ft
Type Medium Airport

Map

Weather

METAR
2014/08/28 13:00
CYSK 281300Z 19009KT 15SM SKC 11/08 A2999 RMK SLP159
TAF
No TAF available

Runways

09/27 3800 ft / 0 ft

Outbound flights

Callsign Flying to Pilot ATD/STD ETA Aircraft

Inbound flights

Callsign Flying from Pilot ATD ETA Aircraft